sensor_id;sensor_type;location;lat;lon;timestamp;P1;durP1;ratioP1;P2;durP2;ratioP2
63444;SDS011;49573;47.682;9.170;2023-03-18T00:01:09;7.68;;;4.53;;
63444;SDS011;49573;47.682;9.170;2023-03-18T00:03:55;8.68;;;4.55;;
63444;SDS011;49573;47.682;9.170;2023-03-18T00:06:41;8.73;;;4.93;;
63444;SDS011;49573;47.682;9.170;2023-03-18T00:09:27;9.43;;;4.87;;
63444;SDS011;49573;47.682;9.170;2023-03-18T00:12:13;7.15;;;4.55;;
63444;SDS011;49573;47.682;9.170;2023-03-18T00:15:01;6.90;;;4.50;;
63444;SDS011;49573;47.682;9.170;2023-03-18T00:17:47;12.07;;;4.50;;
63444;SDS011;49573;47.682;9.170;2023-03-18T00:20:33;8.00;;;4.43;;
63444;SDS011;49573;47.682;9.170;2023-03-18T00:23:26;8.20;;;5.00;;
63444;SDS011;49573;47.682;9.170;2023-03-18T00:26:12;11.32;;;5.43;;
63444;SDS011;49573;47.682;9.170;2023-03-18T00:28:58;9.00;;;5.47;;
63444;SDS011;49573;47.682;9.170;2023-03-18T00:31:46;9.18;;;5.90;;
63444;SDS011;49573;47.682;9.170;2023-03-18T00:34:32;9.77;;;5.85;;
63444;SDS011;49573;47.682;9.170;2023-03-18T00:37:19;11.80;;;6.03;;
63444;SDS011;49573;47.682;9.170;2023-03-18T00:40:14;9.43;;;5.70;;
63444;SDS011;49573;47.682;9.170;2023-03-18T00:43:04;10.90;;;5.57;;
63444;SDS011;49573;47.682;9.170;2023-03-18T00:45:53;11.15;;;5.78;;
63444;SDS011;49573;47.682;9.170;2023-03-18T00:48:41;8.90;;;5.22;;
63444;SDS011;49573;47.682;9.170;2023-03-18T00:51:28;8.85;;;5.53;;
63444;SDS011;49573;47.682;9.170;2023-03-18T00:54:15;10.10;;;5.18;;
63444;SDS011;49573;47.682;9.170;2023-03-18T00:57:04;11.02;;;4.90;;
63444;SDS011;49573;47.682;9.170;2023-03-18T00:59:50;9.88;;;5.43;;
63444;SDS011;49573;47.682;9.170;2023-03-18T01:02:36;10.48;;;5.68;;
63444;SDS011;49573;47.682;9.170;2023-03-18T01:05:24;10.20;;;5.40;;
63444;SDS011;49573;47.682;9.170;2023-03-18T01:08:10;10.02;;;6.35;;
63444;SDS011;49573;47.682;9.170;2023-03-18T01:10:56;10.98;;;5.85;;
63444;SDS011;49573;47.682;9.170;2023-03-18T01:13:43;10.93;;;6.43;;
63444;SDS011;49573;47.682;9.170;2023-03-18T01:19:16;10.10;;;6.32;;
63444;SDS011;49573;47.682;9.170;2023-03-18T01:22:03;9.82;;;6.68;;
63444;SDS011;49573;47.682;9.170;2023-03-18T01:24:50;11.85;;;6.97;;
63444;SDS011;49573;47.682;9.170;2023-03-18T01:27:36;10.18;;;6.55;;
63444;SDS011;49573;47.682;9.170;2023-03-18T01:30:22;10.48;;;6.43;;
63444;SDS011;49573;47.682;9.170;2023-03-18T01:33:09;11.48;;;6.68;;
63444;SDS011;49573;47.682;9.170;2023-03-18T01:35:55;12.95;;;5.88;;
63444;SDS011;49573;47.682;9.170;2023-03-18T01:38:45;10.57;;;6.18;;
63444;SDS011;49573;47.682;9.170;2023-03-18T01:41:31;12.32;;;6.55;;
63444;SDS011;49573;47.682;9.170;2023-03-18T01:44:18;10.95;;;6.97;;
63444;SDS011;49573;47.682;9.170;2023-03-18T01:47:05;10.82;;;7.28;;
63444;SDS011;49573;47.682;9.170;2023-03-18T01:49:52;13.50;;;6.88;;
63444;SDS011;49573;47.682;9.170;2023-03-18T01:52:38;13.45;;;7.35;;
63444;SDS011;49573;47.682;9.170;2023-03-18T01:55:28;10.98;;;7.22;;
63444;SDS011;49573;47.682;9.170;2023-03-18T01:58:18;11.77;;;7.70;;
63444;SDS011;49573;47.682;9.170;2023-03-18T02:01:06;10.70;;;6.95;;
63444;SDS011;49573;47.682;9.170;2023-03-18T02:03:58;13.25;;;7.63;;
63444;SDS011;49573;47.682;9.170;2023-03-18T02:06:46;11.75;;;6.93;;
63444;SDS011;49573;47.682;9.170;2023-03-18T02:09:32;13.50;;;6.90;;
63444;SDS011;49573;47.682;9.170;2023-03-18T02:12:22;12.37;;;7.10;;
63444;SDS011;49573;47.682;9.170;2023-03-18T02:15:11;14.15;;;6.60;;
63444;SDS011;49573;47.682;9.170;2023-03-18T02:18:03;10.05;;;6.50;;
63444;SDS011;49573;47.682;9.170;2023-03-18T02:21:02;11.23;;;6.43;;
63444;SDS011;49573;47.682;9.170;2023-03-18T02:24:00;12.07;;;8.02;;
63444;SDS011;49573;47.682;9.170;2023-03-18T02:26:55;11.10;;;7.53;;
63444;SDS011;49573;47.682;9.170;2023-03-18T02:29:46;11.18;;;7.82;;
63444;SDS011;49573;47.682;9.170;2023-03-18T02:32:33;12.07;;;7.22;;
63444;SDS011;49573;47.682;9.170;2023-03-18T02:35:22;11.88;;;6.97;;
63444;SDS011;49573;47.682;9.170;2023-03-18T02:38:09;11.70;;;7.22;;
63444;SDS011;49573;47.682;9.170;2023-03-18T02:40:55;12.20;;;7.55;;
63444;SDS011;49573;47.682;9.170;2023-03-18T02:43:41;11.90;;;6.63;;
63444;SDS011;49573;47.682;9.170;2023-03-18T02:46:31;12.02;;;6.10;;
63444;SDS011;49573;47.682;9.170;2023-03-18T02:49:25;11.45;;;7.13;;
63444;SDS011;49573;47.682;9.170;2023-03-18T02:52:12;12.18;;;7.10;;
63444;SDS011;49573;47.682;9.170;2023-03-18T02:54:58;13.15;;;7.13;;
63444;SDS011;49573;47.682;9.170;2023-03-18T02:57:46;12.32;;;6.68;;
63444;SDS011;49573;47.682;9.170;2023-03-18T03:00:32;8.57;;;6.53;;
63444;SDS011;49573;47.682;9.170;2023-03-18T03:03:19;12.32;;;7.65;;
63444;SDS011;49573;47.682;9.170;2023-03-18T03:06:05;13.25;;;6.60;;
63444;SDS011;49573;47.682;9.170;2023-03-18T03:08:53;11.90;;;7.22;;
63444;SDS011;49573;47.682;9.170;2023-03-18T03:11:39;13.57;;;6.85;;
63444;SDS011;49573;47.682;9.170;2023-03-18T03:14:27;12.18;;;6.75;;
63444;SDS011;49573;47.682;9.170;2023-03-18T03:17:13;11.77;;;6.13;;
63444;SDS011;49573;47.682;9.170;2023-03-18T03:20:01;12.50;;;7.63;;
63444;SDS011;49573;47.682;9.170;2023-03-18T03:22:50;13.52;;;8.07;;
63444;SDS011;49573;47.682;9.170;2023-03-18T03:28:24;11.35;;;6.97;;
63444;SDS011;49573;47.682;9.170;2023-03-18T03:31:11;13.68;;;7.43;;
63444;SDS011;49573;47.682;9.170;2023-03-18T03:33:58;17.75;;;7.75;;
63444;SDS011;49573;47.682;9.170;2023-03-18T03:36:45;13.45;;;7.03;;
63444;SDS011;49573;47.682;9.170;2023-03-18T03:39:31;12.63;;;7.57;;
63444;SDS011;49573;47.682;9.170;2023-03-18T03:42:18;11.65;;;7.72;;
63444;SDS011;49573;47.682;9.170;2023-03-18T03:45:05;12.55;;;7.53;;
63444;SDS011;49573;47.682;9.170;2023-03-18T03:50:38;12.85;;;7.80;;
63444;SDS011;49573;47.682;9.170;2023-03-18T03:53:25;12.25;;;7.53;;
63444;SDS011;49573;47.682;9.170;2023-03-18T03:56:11;13.52;;;8.40;;
63444;SDS011;49573;47.682;9.170;2023-03-18T03:58:57;12.98;;;8.45;;
63444;SDS011;49573;47.682;9.170;2023-03-18T04:01:44;16.50;;;7.90;;
63444;SDS011;49573;47.682;9.170;2023-03-18T04:04:30;13.10;;;8.38;;
63444;SDS011;49573;47.682;9.170;2023-03-18T04:07:17;14.10;;;9.03;;
63444;SDS011;49573;47.682;9.170;2023-03-18T04:10:05;11.75;;;7.60;;
63444;SDS011;49573;47.682;9.170;2023-03-18T04:12:53;13.57;;;7.85;;
63444;SDS011;49573;47.682;9.170;2023-03-18T04:15:40;10.23;;;7.30;;
63444;SDS011;49573;47.682;9.170;2023-03-18T04:18:26;11.90;;;7.40;;
63444;SDS011;49573;47.682;9.170;2023-03-18T04:21:12;15.10;;;7.38;;
63444;SDS011;49573;47.682;9.170;2023-03-18T04:23:59;13.35;;;7.53;;
63444;SDS011;49573;47.682;9.170;2023-03-18T04:26:49;13.10;;;7.50;;
63444;SDS011;49573;47.682;9.170;2023-03-18T04:29:36;12.27;;;7.28;;
63444;SDS011;49573;47.682;9.170;2023-03-18T04:32:22;14.80;;;7.78;;
63444;SDS011;49573;47.682;9.170;2023-03-18T04:35:08;15.00;;;8.40;;
63444;SDS011;49573;47.682;9.170;2023-03-18T04:37:55;17.15;;;8.82;;
63444;SDS011;49573;47.682;9.170;2023-03-18T04:40:42;13.18;;;8.30;;
63444;SDS011;49573;47.682;9.170;2023-03-18T04:43:29;11.05;;;7.05;;
63444;SDS011;49573;47.682;9.170;2023-03-18T04:46:15;18.30;;;9.95;;
63444;SDS011;49573;47.682;9.170;2023-03-18T04:49:02;22.73;;;10.37;;
63444;SDS011;49573;47.682;9.170;2023-03-18T04:51:48;16.20;;;9.45;;
63444;SDS011;49573;47.682;9.170;2023-03-18T04:54:34;18.70;;;9.48;;
63444;SDS011;49573;47.682;9.170;2023-03-18T04:57:21;16.23;;;8.75;;
63444;SDS011;49573;47.682;9.170;2023-03-18T05:00:10;18.40;;;9.68;;
63444;SDS011;49573;47.682;9.170;2023-03-18T05:02:59;14.13;;;8.50;;
63444;SDS011;49573;47.682;9.170;2023-03-18T05:05:46;10.70;;;7.25;;
63444;SDS011;49573;47.682;9.170;2023-03-18T05:11:19;15.45;;;8.27;;
63444;SDS011;49573;47.682;9.170;2023-03-18T05:14:06;13.60;;;7.50;;
63444;SDS011;49573;47.682;9.170;2023-03-18T05:16:53;15.02;;;9.10;;
63444;SDS011;49573;47.682;9.170;2023-03-18T05:19:40;13.85;;;7.32;;
63444;SDS011;49573;47.682;9.170;2023-03-18T05:22:27;11.40;;;7.03;;
63444;SDS011;49573;47.682;9.170;2023-03-18T05:25:13;12.68;;;7.60;;
63444;SDS011;49573;47.682;9.170;2023-03-18T05:27:59;12.65;;;7.45;;
63444;SDS011;49573;47.682;9.170;2023-03-18T05:30:46;15.07;;;7.50;;
63444;SDS011;49573;47.682;9.170;2023-03-18T05:33:33;11.68;;;7.32;;
63444;SDS011;49573;47.682;9.170;2023-03-18T05:36:20;13.57;;;7.00;;
63444;SDS011;49573;47.682;9.170;2023-03-18T05:39:07;11.40;;;7.28;;
63444;SDS011;49573;47.682;9.170;2023-03-18T05:41:53;12.52;;;7.32;;
63444;SDS011;49573;47.682;9.170;2023-03-18T05:44:39;12.13;;;6.85;;
63444;SDS011;49573;47.682;9.170;2023-03-18T05:47:26;12.80;;;7.28;;
63444;SDS011;49573;47.682;9.170;2023-03-18T05:53:02;10.93;;;7.30;;
63444;SDS011;49573;47.682;9.170;2023-03-18T05:55:48;10.00;;;6.00;;
63444;SDS011;49573;47.682;9.170;2023-03-18T05:58:34;11.20;;;6.47;;
63444;SDS011;49573;47.682;9.170;2023-03-18T06:01:20;11.13;;;6.70;;
63444;SDS011;49573;47.682;9.170;2023-03-18T06:04:06;12.43;;;7.55;;
63444;SDS011;49573;47.682;9.170;2023-03-18T06:06:53;12.13;;;7.13;;
63444;SDS011;49573;47.682;9.170;2023-03-18T06:09:41;11.20;;;6.90;;
63444;SDS011;49573;47.682;9.170;2023-03-18T06:12:27;10.80;;;7.03;;
63444;SDS011;49573;47.682;9.170;2023-03-18T06:15:14;10.60;;;7.22;;
63444;SDS011;49573;47.682;9.170;2023-03-18T06:18:00;11.40;;;7.55;;
63444;SDS011;49573;47.682;9.170;2023-03-18T06:20:47;13.95;;;7.53;;
63444;SDS011;49573;47.682;9.170;2023-03-18T06:23:33;11.32;;;7.28;;
63444;SDS011;49573;47.682;9.170;2023-03-18T06:26:21;17.27;;;9.10;;
63444;SDS011;49573;47.682;9.170;2023-03-18T06:29:07;14.35;;;8.73;;
63444;SDS011;49573;47.682;9.170;2023-03-18T06:34:41;12.05;;;7.82;;
63444;SDS011;49573;47.682;9.170;2023-03-18T06:37:27;14.15;;;8.77;;
63444;SDS011;49573;47.682;9.170;2023-03-18T06:40:14;13.27;;;8.63;;
63444;SDS011;49573;47.682;9.170;2023-03-18T06:43:01;17.55;;;9.80;;
63444;SDS011;49573;47.682;9.170;2023-03-18T06:45:49;17.75;;;11.13;;
63444;SDS011;49573;47.682;9.170;2023-03-18T06:48:35;14.05;;;10.05;;
63444;SDS011;49573;47.682;9.170;2023-03-18T06:51:24;13.52;;;8.93;;
63444;SDS011;49573;47.682;9.170;2023-03-18T06:54:11;16.38;;;9.35;;
63444;SDS011;49573;47.682;9.170;2023-03-18T06:56:57;15.65;;;9.95;;
63444;SDS011;49573;47.682;9.170;2023-03-18T06:59:44;16.02;;;9.25;;
63444;SDS011;49573;47.682;9.170;2023-03-18T07:02:31;18.48;;;10.10;;
63444;SDS011;49573;47.682;9.170;2023-03-18T07:05:18;15.90;;;9.75;;
63444;SDS011;49573;47.682;9.170;2023-03-18T07:10:52;17.60;;;9.77;;
63444;SDS011;49573;47.682;9.170;2023-03-18T07:16:27;13.43;;;9.18;;
63444;SDS011;49573;47.682;9.170;2023-03-18T07:19:15;17.38;;;10.63;;
63444;SDS011;49573;47.682;9.170;2023-03-18T07:24:49;17.90;;;10.73;;
63444;SDS011;49573;47.682;9.170;2023-03-18T07:27:36;17.08;;;10.02;;
63444;SDS011;49573;47.682;9.170;2023-03-18T07:30:23;16.90;;;10.88;;
63444;SDS011;49573;47.682;9.170;2023-03-18T07:33:10;18.15;;;10.80;;
63444;SDS011;49573;47.682;9.170;2023-03-18T07:35:57;19.33;;;10.57;;
63444;SDS011;49573;47.682;9.170;2023-03-18T07:38:43;19.50;;;12.02;;
63444;SDS011;49573;47.682;9.170;2023-03-18T07:41:30;18.48;;;10.90;;
63444;SDS011;49573;47.682;9.170;2023-03-18T07:44:17;17.27;;;10.70;;
63444;SDS011;49573;47.682;9.170;2023-03-18T07:47:03;16.48;;;10.45;;
63444;SDS011;49573;47.682;9.170;2023-03-18T07:49:51;17.55;;;9.98;;
63444;SDS011;49573;47.682;9.170;2023-03-18T07:52:37;16.75;;;10.30;;
63444;SDS011;49573;47.682;9.170;2023-03-18T07:55:24;16.13;;;9.98;;
63444;SDS011;49573;47.682;9.170;2023-03-18T07:58:10;14.93;;;10.15;;
63444;SDS011;49573;47.682;9.170;2023-03-18T08:03:44;15.98;;;10.80;;
63444;SDS011;49573;47.682;9.170;2023-03-18T08:06:32;14.90;;;10.68;;
63444;SDS011;49573;47.682;9.170;2023-03-18T08:09:18;19.77;;;11.02;;
63444;SDS011;49573;47.682;9.170;2023-03-18T08:12:05;21.05;;;10.77;;
63444;SDS011;49573;47.682;9.170;2023-03-18T08:14:52;17.67;;;10.90;;
63444;SDS011;49573;47.682;9.170;2023-03-18T08:17:39;17.00;;;10.63;;
63444;SDS011;49573;47.682;9.170;2023-03-18T08:20:25;16.48;;;11.20;;
63444;SDS011;49573;47.682;9.170;2023-03-18T08:26:00;15.57;;;10.77;;
63444;SDS011;49573;47.682;9.170;2023-03-18T08:28:47;15.68;;;10.90;;
63444;SDS011;49573;47.682;9.170;2023-03-18T08:31:33;16.52;;;10.55;;
63444;SDS011;49573;47.682;9.170;2023-03-18T08:34:20;22.73;;;10.93;;
63444;SDS011;49573;47.682;9.170;2023-03-18T08:37:06;15.88;;;10.73;;
63444;SDS011;49573;47.682;9.170;2023-03-18T08:39:53;13.82;;;10.32;;
63444;SDS011;49573;47.682;9.170;2023-03-18T08:42:40;15.63;;;10.45;;
63444;SDS011;49573;47.682;9.170;2023-03-18T08:45:27;17.48;;;11.00;;
63444;SDS011;49573;47.682;9.170;2023-03-18T08:48:13;14.77;;;9.98;;
63444;SDS011;49573;47.682;9.170;2023-03-18T08:51:01;14.38;;;9.90;;
63444;SDS011;49573;47.682;9.170;2023-03-18T08:53:48;17.70;;;10.02;;
63444;SDS011;49573;47.682;9.170;2023-03-18T08:56:34;17.70;;;10.88;;
63444;SDS011;49573;47.682;9.170;2023-03-18T08:59:22;16.70;;;10.85;;
63444;SDS011;49573;47.682;9.170;2023-03-18T09:02:10;15.73;;;9.85;;
63444;SDS011;49573;47.682;9.170;2023-03-18T09:05:01;14.27;;;10.05;;
63444;SDS011;49573;47.682;9.170;2023-03-18T09:07:47;17.98;;;11.30;;
63444;SDS011;49573;47.682;9.170;2023-03-18T09:10:34;14.70;;;11.13;;
63444;SDS011;49573;47.682;9.170;2023-03-18T09:13:20;13.88;;;9.98;;
63444;SDS011;49573;47.682;9.170;2023-03-18T09:16:08;14.50;;;10.90;;
63444;SDS011;49573;47.682;9.170;2023-03-18T09:18:55;15.00;;;10.25;;
63444;SDS011;49573;47.682;9.170;2023-03-18T09:21:41;14.65;;;10.38;;
63444;SDS011;49573;47.682;9.170;2023-03-18T09:24:27;17.35;;;11.93;;
63444;SDS011;49573;47.682;9.170;2023-03-18T09:27:14;16.85;;;11.32;;
63444;SDS011;49573;47.682;9.170;2023-03-18T09:30:00;20.92;;;12.80;;
63444;SDS011;49573;47.682;9.170;2023-03-18T09:32:49;16.30;;;11.75;;
63444;SDS011;49573;47.682;9.170;2023-03-18T09:35:35;14.55;;;10.88;;
63444;SDS011;49573;47.682;9.170;2023-03-18T09:38:22;13.75;;;10.13;;
63444;SDS011;49573;47.682;9.170;2023-03-18T09:41:14;15.48;;;9.98;;
63444;SDS011;49573;47.682;9.170;2023-03-18T09:44:06;15.70;;;11.07;;
63444;SDS011;49573;47.682;9.170;2023-03-18T09:46:57;19.77;;;11.98;;
63444;SDS011;49573;47.682;9.170;2023-03-18T09:49:56;18.00;;;11.07;;
63444;SDS011;49573;47.682;9.170;2023-03-18T09:52:47;17.30;;;10.38;;
63444;SDS011;49573;47.682;9.170;2023-03-18T09:55:36;17.10;;;9.85;;
63444;SDS011;49573;47.682;9.170;2023-03-18T09:58:26;14.70;;;10.23;;
63444;SDS011;49573;47.682;9.170;2023-03-18T10:01:13;13.20;;;9.73;;
63444;SDS011;49573;47.682;9.170;2023-03-18T10:04:02;13.38;;;9.52;;
63444;SDS011;49573;47.682;9.170;2023-03-18T10:06:52;13.85;;;9.18;;
63444;SDS011;49573;47.682;9.170;2023-03-18T10:09:40;12.75;;;8.35;;
63444;SDS011;49573;47.682;9.170;2023-03-18T10:12:29;7.88;;;5.45;;
63444;SDS011;49573;47.682;9.170;2023-03-18T10:15:17;9.57;;;5.55;;
63444;SDS011;49573;47.682;9.170;2023-03-18T10:18:07;8.95;;;5.28;;
63444;SDS011;49573;47.682;9.170;2023-03-18T10:20:57;10.57;;;5.00;;
63444;SDS011;49573;47.682;9.170;2023-03-18T10:23:48;7.45;;;5.13;;
63444;SDS011;49573;47.682;9.170;2023-03-18T10:26:38;7.43;;;4.88;;
63444;SDS011;49573;47.682;9.170;2023-03-18T10:29:30;7.18;;;4.68;;
63444;SDS011;49573;47.682;9.170;2023-03-18T10:32:22;8.18;;;5.38;;
63444;SDS011;49573;47.682;9.170;2023-03-18T10:35:14;9.40;;;5.05;;
63444;SDS011;49573;47.682;9.170;2023-03-18T10:38:04;6.80;;;4.40;;
63444;SDS011;49573;47.682;9.170;2023-03-18T10:40:58;7.60;;;4.53;;
63444;SDS011;49573;47.682;9.170;2023-03-18T10:43:45;9.52;;;4.30;;
63444;SDS011;49573;47.682;9.170;2023-03-18T10:46:32;8.02;;;4.78;;
63444;SDS011;49573;47.682;9.170;2023-03-18T10:49:19;10.05;;;4.72;;
63444;SDS011;49573;47.682;9.170;2023-03-18T10:52:11;7.13;;;4.28;;
63444;SDS011;49573;47.682;9.170;2023-03-18T10:55:00;7.60;;;4.60;;
63444;SDS011;49573;47.682;9.170;2023-03-18T10:57:47;6.88;;;4.45;;
63444;SDS011;49573;47.682;9.170;2023-03-18T11:00:34;6.78;;;4.60;;
63444;SDS011;49573;47.682;9.170;2023-03-18T11:03:23;6.38;;;4.28;;
63444;SDS011;49573;47.682;9.170;2023-03-18T11:06:13;6.10;;;4.78;;
63444;SDS011;49573;47.682;9.170;2023-03-18T11:09:02;7.57;;;4.82;;
63444;SDS011;49573;47.682;9.170;2023-03-18T11:11:55;9.40;;;5.05;;
63444;SDS011;49573;47.682;9.170;2023-03-18T11:14:45;9.18;;;6.05;;
63444;SDS011;49573;47.682;9.170;2023-03-18T11:17:33;9.98;;;7.07;;
63444;SDS011;49573;47.682;9.170;2023-03-18T11:20:21;9.07;;;6.70;;
63444;SDS011;49573;47.682;9.170;2023-03-18T11:23:14;9.02;;;5.88;;
63444;SDS011;49573;47.682;9.170;2023-03-18T11:26:02;9.18;;;5.80;;
63444;SDS011;49573;47.682;9.170;2023-03-18T11:28:53;9.90;;;6.15;;
63444;SDS011;49573;47.682;9.170;2023-03-18T11:34:28;9.48;;;5.82;;
63444;SDS011;49573;47.682;9.170;2023-03-18T11:37:14;8.95;;;6.65;;
63444;SDS011;49573;47.682;9.170;2023-03-18T11:40:15;9.02;;;6.28;;
63444;SDS011;49573;47.682;9.170;2023-03-18T11:43:03;9.25;;;6.10;;
63444;SDS011;49573;47.682;9.170;2023-03-18T11:45:58;10.07;;;6.18;;
63444;SDS011;49573;47.682;9.170;2023-03-18T11:48:45;11.93;;;6.68;;
63444;SDS011;49573;47.682;9.170;2023-03-18T11:51:36;8.48;;;5.90;;
63444;SDS011;49573;47.682;9.170;2023-03-18T11:54:35;8.80;;;5.70;;
63444;SDS011;49573;47.682;9.170;2023-03-18T11:57:26;10.25;;;6.22;;
63444;SDS011;49573;47.682;9.170;2023-03-18T12:00:17;9.70;;;6.18;;
63444;SDS011;49573;47.682;9.170;2023-03-18T12:03:17;11.65;;;6.82;;
63444;SDS011;49573;47.682;9.170;2023-03-18T12:06:09;9.48;;;5.97;;
63444;SDS011;49573;47.682;9.170;2023-03-18T12:09:04;9.65;;;5.72;;
63444;SDS011;49573;47.682;9.170;2023-03-18T12:11:58;9.18;;;5.60;;
63444;SDS011;49573;47.682;9.170;2023-03-18T12:14:48;6.82;;;5.10;;
63444;SDS011;49573;47.682;9.170;2023-03-18T12:17:40;8.07;;;5.28;;
63444;SDS011;49573;47.682;9.170;2023-03-18T12:20:31;8.95;;;5.25;;
63444;SDS011;49573;47.682;9.170;2023-03-18T12:23:21;9.80;;;5.18;;
63444;SDS011;49573;47.682;9.170;2023-03-18T12:26:14;6.45;;;4.38;;
63444;SDS011;49573;47.682;9.170;2023-03-18T12:32:08;7.95;;;4.78;;
63444;SDS011;49573;47.682;9.170;2023-03-18T12:35:15;8.52;;;4.43;;
63444;SDS011;49573;47.682;9.170;2023-03-18T12:41:06;6.97;;;4.32;;
63444;SDS011;49573;47.682;9.170;2023-03-18T12:44:03;7.68;;;4.18;;
63444;SDS011;49573;47.682;9.170;2023-03-18T12:47:10;8.07;;;4.22;;
63444;SDS011;49573;47.682;9.170;2023-03-18T12:50:01;6.97;;;3.97;;
63444;SDS011;49573;47.682;9.170;2023-03-18T12:52:51;7.70;;;3.95;;
63444;SDS011;49573;47.682;9.170;2023-03-18T12:55:41;7.47;;;4.38;;
63444;SDS011;49573;47.682;9.170;2023-03-18T12:58:31;6.47;;;3.80;;
63444;SDS011;49573;47.682;9.170;2023-03-18T13:01:25;6.05;;;4.00;;
63444;SDS011;49573;47.682;9.170;2023-03-18T13:04:17;6.13;;;3.88;;
63444;SDS011;49573;47.682;9.170;2023-03-18T13:07:07;7.13;;;3.40;;
63444;SDS011;49573;47.682;9.170;2023-03-18T13:10:01;6.43;;;3.47;;
63444;SDS011;49573;47.682;9.170;2023-03-18T13:12:59;7.40;;;3.70;;
63444;SDS011;49573;47.682;9.170;2023-03-18T13:15:49;7.10;;;3.45;;
63444;SDS011;49573;47.682;9.170;2023-03-18T13:18:42;5.53;;;3.50;;
63444;SDS011;49573;47.682;9.170;2023-03-18T13:21:29;8.10;;;3.63;;
63444;SDS011;49573;47.682;9.170;2023-03-18T13:31:01;6.00;;;3.13;;
63444;SDS011;49573;47.682;9.170;2023-03-18T13:34:07;4.97;;;3.03;;
63444;SDS011;49573;47.682;9.170;2023-03-18T13:37:23;4.45;;;2.80;;
63444;SDS011;49573;47.682;9.170;2023-03-18T13:43:24;4.88;;;3.13;;
63444;SDS011;49573;47.682;9.170;2023-03-18T13:46:15;5.45;;;3.10;;
63444;SDS011;49573;47.682;9.170;2023-03-18T13:49:02;6.80;;;3.97;;
63444;SDS011;49573;47.682;9.170;2023-03-18T13:51:51;5.85;;;3.30;;
63444;SDS011;49573;47.682;9.170;2023-03-18T13:54:40;6.70;;;3.70;;
63444;SDS011;49573;47.682;9.170;2023-03-18T13:57:31;5.97;;;3.47;;
63444;SDS011;49573;47.682;9.170;2023-03-18T14:00:23;7.05;;;3.72;;
63444;SDS011;49573;47.682;9.170;2023-03-18T14:03:14;4.97;;;2.97;;
63444;SDS011;49573;47.682;9.170;2023-03-18T14:06:18;5.05;;;2.97;;
63444;SDS011;49573;47.682;9.170;2023-03-18T14:12:18;5.65;;;3.42;;
63444;SDS011;49573;47.682;9.170;2023-03-18T14:15:27;4.78;;;3.17;;
63444;SDS011;49573;47.682;9.170;2023-03-18T14:18:16;6.13;;;3.40;;
63444;SDS011;49573;47.682;9.170;2023-03-18T14:21:04;6.07;;;3.72;;
63444;SDS011;49573;47.682;9.170;2023-03-18T14:23:59;5.63;;;3.47;;
63444;SDS011;49573;47.682;9.170;2023-03-18T14:27:07;6.43;;;3.17;;
63444;SDS011;49573;47.682;9.170;2023-03-18T14:29:56;4.68;;;3.15;;
63444;SDS011;49573;47.682;9.170;2023-03-18T14:33:03;7.03;;;3.72;;
63444;SDS011;49573;47.682;9.170;2023-03-18T14:35:51;4.97;;;3.40;;
63444;SDS011;49573;47.682;9.170;2023-03-18T14:38:40;5.35;;;3.00;;
63444;SDS011;49573;47.682;9.170;2023-03-18T14:41:27;5.97;;;3.63;;
63444;SDS011;49573;47.682;9.170;2023-03-18T14:44:17;6.88;;;4.20;;
63444;SDS011;49573;47.682;9.170;2023-03-18T14:47:11;5.97;;;3.78;;
63444;SDS011;49573;47.682;9.170;2023-03-18T14:50:02;5.32;;;3.67;;
63444;SDS011;49573;47.682;9.170;2023-03-18T14:52:51;6.40;;;4.22;;
63444;SDS011;49573;47.682;9.170;2023-03-18T14:55:38;6.03;;;3.72;;
63444;SDS011;49573;47.682;9.170;2023-03-18T14:58:25;7.25;;;4.10;;
63444;SDS011;49573;47.682;9.170;2023-03-18T15:01:13;9.02;;;4.05;;
63444;SDS011;49573;47.682;9.170;2023-03-18T15:04:03;5.70;;;3.63;;
63444;SDS011;49573;47.682;9.170;2023-03-18T15:06:50;6.68;;;4.35;;
63444;SDS011;49573;47.682;9.170;2023-03-18T15:09:37;7.38;;;4.47;;
63444;SDS011;49573;47.682;9.170;2023-03-18T15:12:27;7.43;;;4.85;;
63444;SDS011;49573;47.682;9.170;2023-03-18T15:15:15;8.93;;;4.78;;
63444;SDS011;49573;47.682;9.170;2023-03-18T15:18:10;7.60;;;4.78;;
63444;SDS011;49573;47.682;9.170;2023-03-18T15:21:03;7.72;;;5.03;;
63444;SDS011;49573;47.682;9.170;2023-03-18T15:23:51;6.97;;;4.47;;
63444;SDS011;49573;47.682;9.170;2023-03-18T15:26:39;7.22;;;4.55;;
63444;SDS011;49573;47.682;9.170;2023-03-18T15:29:28;7.38;;;4.63;;
63444;SDS011;49573;47.682;9.170;2023-03-18T15:32:18;7.43;;;4.82;;
63444;SDS011;49573;47.682;9.170;2023-03-18T15:35:10;7.68;;;4.30;;
63444;SDS011;49573;47.682;9.170;2023-03-18T15:38:04;8.93;;;5.03;;
63444;SDS011;49573;47.682;9.170;2023-03-18T15:40:52;8.05;;;5.00;;
63444;SDS011;49573;47.682;9.170;2023-03-18T15:43:40;9.73;;;4.70;;
63444;SDS011;49573;47.682;9.170;2023-03-18T15:46:28;8.13;;;4.65;;
63444;SDS011;49573;47.682;9.170;2023-03-18T15:49:17;7.45;;;4.50;;
63444;SDS011;49573;47.682;9.170;2023-03-18T15:52:12;6.47;;;4.75;;
63444;SDS011;49573;47.682;9.170;2023-03-18T15:55:01;8.55;;;4.60;;
63444;SDS011;49573;47.682;9.170;2023-03-18T15:57:51;7.15;;;4.03;;
63444;SDS011;49573;47.682;9.170;2023-03-18T16:00:38;6.90;;;4.13;;
63444;SDS011;49573;47.682;9.170;2023-03-18T16:03:27;5.57;;;3.38;;
63444;SDS011;49573;47.682;9.170;2023-03-18T16:06:16;6.00;;;3.85;;
63444;SDS011;49573;47.682;9.170;2023-03-18T16:09:10;8.32;;;4.00;;
63444;SDS011;49573;47.682;9.170;2023-03-18T16:12:01;8.07;;;4.38;;
63444;SDS011;49573;47.682;9.170;2023-03-18T16:14:53;8.80;;;3.83;;
63444;SDS011;49573;47.682;9.170;2023-03-18T16:17:39;6.47;;;4.20;;
63444;SDS011;49573;47.682;9.170;2023-03-18T16:20:26;8.18;;;3.67;;
63444;SDS011;49573;47.682;9.170;2023-03-18T16:23:13;6.10;;;3.53;;
63444;SDS011;49573;47.682;9.170;2023-03-18T16:26:00;6.40;;;4.47;;
63444;SDS011;49573;47.682;9.170;2023-03-18T16:28:48;7.43;;;3.80;;
63444;SDS011;49573;47.682;9.170;2023-03-18T16:31:35;7.70;;;3.42;;
63444;SDS011;49573;47.682;9.170;2023-03-18T16:34:21;5.93;;;3.10;;
63444;SDS011;49573;47.682;9.170;2023-03-18T16:39:54;5.50;;;3.92;;
63444;SDS011;49573;47.682;9.170;2023-03-18T16:42:41;9.15;;;5.03;;
63444;SDS011;49573;47.682;9.170;2023-03-18T16:48:16;7.50;;;4.28;;
63444;SDS011;49573;47.682;9.170;2023-03-18T16:51:03;8.32;;;4.15;;
63444;SDS011;49573;47.682;9.170;2023-03-18T16:53:49;6.97;;;4.20;;
63444;SDS011;49573;47.682;9.170;2023-03-18T16:56:36;8.07;;;4.07;;
63444;SDS011;49573;47.682;9.170;2023-03-18T16:59:22;7.80;;;4.60;;
63444;SDS011;49573;47.682;9.170;2023-03-18T17:02:11;7.45;;;4.82;;
63444;SDS011;49573;47.682;9.170;2023-03-18T17:05:08;8.87;;;4.57;;
63444;SDS011;49573;47.682;9.170;2023-03-18T17:07:58;6.80;;;4.20;;
63444;SDS011;49573;47.682;9.170;2023-03-18T17:10:45;6.93;;;4.47;;
63444;SDS011;49573;47.682;9.170;2023-03-18T17:13:34;6.30;;;4.40;;
63444;SDS011;49573;47.682;9.170;2023-03-18T17:16:22;7.20;;;4.85;;
63444;SDS011;49573;47.682;9.170;2023-03-18T17:19:12;6.85;;;4.78;;
63444;SDS011;49573;47.682;9.170;2023-03-18T17:22:00;6.78;;;4.60;;
63444;SDS011;49573;47.682;9.170;2023-03-18T17:24:47;7.60;;;3.80;;
63444;SDS011;49573;47.682;9.170;2023-03-18T17:27:36;6.68;;;3.90;;
63444;SDS011;49573;47.682;9.170;2023-03-18T17:30:25;6.45;;;3.40;;
63444;SDS011;49573;47.682;9.170;2023-03-18T17:33:21;5.93;;;3.45;;
63444;SDS011;49573;47.682;9.170;2023-03-18T17:36:08;6.55;;;3.60;;
63444;SDS011;49573;47.682;9.170;2023-03-18T17:38:56;5.18;;;3.13;;
63444;SDS011;49573;47.682;9.170;2023-03-18T17:41:44;8.43;;;4.82;;
63444;SDS011;49573;47.682;9.170;2023-03-18T17:44:30;8.02;;;3.60;;